Impacts TAF Board
For situational awareness. Not to be used for flight planning purposes.
IDs:

KLAL - Lakeland Rgnl, FL, US

Issued at 1740 UTC 21 Sep 2021
Updated at 2047 UTC 21 Sep 2021
Potential Impact None Slight Moderate High
Time1950Z 21/21Z 21/22Z 21/23Z 22/00Z 22/01Z 22/02Z 22/03Z 22/04Z 22/05Z 22/06Z 22/07Z 22/08Z 22/09Z>>
Type OBS PRVL
  [TEMP]  
PRVL
  [TEMP]  
PRVL PRVL PRVL PRVL PRVL PRVL PRVL PRVL PRVL PRVL PRVL
VIS 10 >6
  [3]  
>6
  [3]  
>6 >6 >6 >6 >6 >6 >6 >6 >6 >6 >6
CIG 50 50
  [30]  
50
  [30]  
50 50 50 250 250 250 250 250 250 -- --
Cover BKN BKN
  [BKN]  
BKN
  [BKN]  
BKN BKN BKN BKN BKN BKN BKN BKN BKN SCT SCT
FltCat VFR VFR
  [MVFR]  
VFR
  [MVFR]  
VFR VFR VFR VFR VFR VFR VFR VFR VFR VFR VFR
WX -RA VCTS
  [TSRA]  
VCTS
  [TSRA]  
VCTS VCTS VCTS -- -- -- -- -- -- -- --
WDir VRB 100
[VRB]
100
[VRB]
100 100 100 VRB VRB VRB VRB VRB VRB VRB VRB
WSpd 0 5
  [14]  
5
  [14]  
5 5 5 3 3 3 3 3 3 3 3
WGst -- --
  [22]  
--
  [22]  
-- -- -- -- -- -- -- -- -- -- --
Raw TAF
KLAL 211740Z 2118/2218 10005KT P6SM VCTS SCT030CB BKN050
  TEMPO 2119/2123 VRB14G22KT 3SM TSRA BKN030CB
  FM220200 VRB03KT P6SM FEW015 SCT120 BKN250
  FM220800 VRB03KT P6SM SCT008 SCT250
  FM221500 23004KT P6SM VCSH SCT025 SCT120 BKN250


Raw METAR
KLAL 211950Z 00000KT 10SM -RA BKN050 BKN065 28/24 A3000 RMK DST LTG E-SW
KLAL 211850Z 00000KT 10SM SCT034 SCT050 BKN060 31/22 A3001 RMK DST LTG NE-S
KLAL 211750Z 00000KT 10SM SCT035 BKN050 30/22 A3004

METAR Board
Radar Display
Forecast Discussion
For situational awareness. Not to be used for flight planning purposes.